createdAt,value
2022-09-28T00:16:19.838Z,243
2022-09-28T00:36:19.806Z,247
2022-09-28T00:56:19.806Z,266
2022-09-28T01:16:19.351Z,266
2022-09-28T01:36:19.828Z,262
2022-09-28T01:56:19.809Z,254
2022-09-28T02:16:19.848Z,255
2022-09-28T02:36:19.815Z,255
2022-09-28T02:56:19.838Z,249
2022-09-28T03:16:19.399Z,257
2022-09-28T03:36:19.654Z,254
2022-09-28T03:56:19.826Z,250
2022-09-28T04:16:19.931Z,244
2022-09-28T04:36:19.357Z,255
2022-09-28T04:56:19.852Z,252
2022-09-28T05:16:19.669Z,252
2022-09-28T05:36:19.943Z,253
2022-09-28T05:56:19.856Z,247
2022-09-28T06:36:19.879Z,241
2022-09-28T06:56:19.907Z,244
2022-09-28T07:16:22.819Z,240
2022-09-28T07:36:19.896Z,242
2022-09-28T07:56:19.915Z,242
2022-09-28T08:16:20.004Z,241
2022-09-28T08:36:19.983Z,242
2022-09-28T08:56:19.934Z,243
2022-09-28T09:16:19.450Z,233
2022-09-28T09:36:19.912Z,235
2022-09-28T09:56:19.923Z,236
2022-09-28T10:16:19.938Z,231
2022-09-28T10:36:19.930Z,230
2022-09-28T10:56:19.922Z,228
2022-09-28T11:16:19.967Z,229
2022-09-28T11:36:19.947Z,234
2022-09-28T11:56:19.970Z,232
2022-09-28T12:16:38.709Z,226
2022-09-28T12:36:19.446Z,226
2022-09-28T12:56:20.972Z,226
2022-09-28T13:16:20.005Z,228
2022-09-28T13:36:19.929Z,226
2022-09-28T13:56:19.927Z,220
2022-09-28T14:16:20.003Z,203
2022-09-28T14:36:19.943Z,207
2022-09-28T14:56:19.741Z,209
2022-09-28T15:16:19.941Z,211
2022-09-28T15:36:19.931Z,217
2022-09-28T15:56:19.922Z,221
2022-09-28T16:16:19.985Z,219
2022-09-28T16:36:19.935Z,221
2022-09-28T16:56:19.930Z,223
2022-09-28T17:16:28.118Z,234
2022-09-28T17:36:19.950Z,289
2022-09-28T17:56:19.595Z,274
2022-09-28T18:36:19.949Z,307
2022-09-28T18:56:19.963Z,299
2022-09-28T19:16:19.511Z,297
2022-09-28T19:36:19.981Z,289
2022-09-28T19:56:19.504Z,289
2022-09-28T20:16:20.024Z,295
2022-09-28T20:36:20.503Z,289
2022-09-28T20:56:20.090Z,288
2022-09-28T21:16:19.985Z,289
2022-09-28T21:36:19.994Z,289
2022-09-28T21:56:20.017Z,286
2022-09-28T22:16:20.071Z,288
2022-09-28T22:36:20.106Z,282
2022-09-28T22:56:20.034Z,278
2022-09-28T23:16:20.178Z,275
2022-09-28T23:36:20.057Z,274
2022-09-28T23:56:20.065Z,266
